Airfield :
LOGIN :

Register | Disclaimer

   EN    FR    IT 

 










Legend :    VFR   Marginal VFR   IFR   Intensive IFR   Very Intensive IFR
Visi :
Ceiling :
>= 8 km
>= 3000ft
5 to 8 km
1000 to 3000 ft
1500m to 5 km
500 to 1000 ft
800 to 1500m
200 to 500 ft
< 800m
< 200 ft
Symbols :   Thunderstorms  Fog  Heavy snow  Heavy precipitations  Wind > 20 kt
SIGMETs :     Misc.  Thunderstorms  Icing  Turbulence  Mountain Waves  Volcanic Ashes






- Airport Elevation : 209 ft
- IATA code : CLY


LFKC - Calvi

CURRENT METAR :
  • 252030Z AUTO VRB02KT 9999 FEW023 BKN060 BKN074 18/17 Q1011 NOSIG

EXPIRED METARs :
  • 252000Z AUTO VRB02KT 9999 FEW025 SCT056 BKN070 18/17 Q1011 NOSIG
  • 251930Z AUTO VRB02KT 6000 -RA FEW015 SCT052 BKN070 18/17 Q1011 NOSIG
  • 251900Z AUTO 17004KT 9999 FEW025 SCT064 BKN086 18/16 Q1011 NOSIG
  • 251830Z AUTO 19003KT 160V230 9999 FEW021 18/16 Q1011 NOSIG

TAF TAF LFKC
Valid from the 25 at 15:00 until the 26 at 15:00 UTC


251400Z 2515/2615 35008KT 9999 BKN030 TX23/2612Z TN16/2604Z
TEMPO 2515/2516 SHRA BKN020 FEW030CB
BECMG 2518/2520 18005KT FEW030
BECMG 2607/2609 21010KT
BECMG 2610/2612 21015G25KT
ATIS : +33 4 95 65 82 49



MET'MAP, your aeronautical weather chart ! - Copyright ORBIFLY December 2007 - Disclaimer

ORBIFLY MET'MAP TEAM :

Programming & Development : Alexandra Zaïnal
Original concept : Baudouin d'Aumeries
Technical & hardware support : Manuel Goepfert
Assistance : Marc-Olivier Méhu




SOURCES & CREDITS :

   NOAA